Time;durP1;ratioP1;P1;durP2;ratioP2;P2;SDS_P1;SDS_P2;PMS_P1;PMS_P2;Temp;Humidity;BMP_temperature;BMP_pressure;BME280_temperature;BME280_humidity;BME280_pressure;Samples;Min_cycle;Max_cycle;Signal;HPM_P1;HPM_P2
2023/12/17 00:00:52;;;;;;;6.50;2.05;;;9.40;99.90;;;;;;4999918;28;20042;-77
2023/12/17 00:03:18;;;;;;;4.03;1.40;;;9.40;99.90;;;;;;4990824;28;20039;-78
2023/12/17 00:05:43;;;;;;;1.75;1.17;;;9.40;99.90;;;;;;4989791;28;20100;-77
2023/12/17 00:08:09;;;;;;;4.80;2.15;;;9.40;99.90;;;;;;4997957;28;20054;-77
2023/12/17 00:10:34;;;;;;;4.43;1.98;;;9.40;99.90;;;;;;4984592;28;20081;-77
2023/12/17 00:13:00;;;;;;;3.85;1.58;;;9.40;99.90;;;;;;4984336;28;20623;-78
2023/12/17 00:15:26;;;;;;;5.72;2.50;;;9.40;99.90;;;;;;5004564;28;20042;-78
2023/12/17 00:17:52;;;;;;;2.75;1.80;;;9.40;99.90;;;;;;4988604;28;20078;-78
2023/12/17 00:20:17;;;;;;;7.95;2.47;;;9.40;99.90;;;;;;4996584;28;20041;-78
2023/12/17 00:22:43;;;;;;;9.23;2.25;;;9.50;99.90;;;;;;5001485;28;20092;-78
2023/12/17 00:25:08;;;;;;;2.60;1.75;;;9.40;99.90;;;;;;5000769;28;20440;-78
2023/12/17 00:27:34;;;;;;;4.38;2.35;;;9.40;99.90;;;;;;4983003;28;20072;-78
2023/12/17 00:30:00;;;;;;;4.32;1.98;;;9.40;99.90;;;;;;4985049;28;20046;-78
2023/12/17 00:32:25;;;;;;;2.78;2.22;;;9.40;99.90;;;;;;4983172;28;20496;-77
2023/12/17 00:34:51;;;;;;;5.68;1.90;;;9.40;99.90;;;;;;4984512;28;20038;-78
2023/12/17 00:37:16;;;;;;;4.80;2.13;;;9.40;99.90;;;;;;4984219;28;20046;-77
2023/12/17 00:39:42;;;;;;;5.95;2.58;;;9.40;99.90;;;;;;4983578;28;20091;-77
2023/12/17 00:42:07;;;;;;;6.00;2.38;;;9.40;99.90;;;;;;4983439;28;20459;-78
2023/12/17 00:44:33;;;;;;;3.67;1.63;;;9.40;99.90;;;;;;4989420;28;20049;-77
2023/12/17 00:47:00;;;;;;;4.93;1.60;;;9.40;99.90;;;;;;5004171;28;20034;-77
2023/12/17 00:49:25;;;;;;;4.18;2.67;;;9.40;99.90;;;;;;5001258;28;20050;-77
2023/12/17 00:51:51;;;;;;;4.68;2.35;;;9.40;99.90;;;;;;5002607;28;20807;-78
2023/12/17 00:54:16;;;;;;;2.95;1.08;;;9.40;99.90;;;;;;4996402;28;20121;-77
2023/12/17 00:56:42;;;;;;;3.22;2.25;;;9.40;99.90;;;;;;5001919;28;20059;-77
2023/12/17 00:59:07;;;;;;;13.07;2.33;;;9.40;99.90;;;;;;4983986;28;20041;-78
2023/12/17 01:01:33;;;;;;;4.90;2.35;;;9.40;99.90;;;;;;4999274;28;20069;-78
2023/12/17 01:03:58;;;;;;;5.32;3.50;;;9.40;99.90;;;;;;4994006;28;20041;-78
2023/12/17 01:06:24;;;;;;;3.88;1.40;;;9.40;99.90;;;;;;4984142;28;20340;-78
2023/12/17 01:08:49;;;;;;;3.05;2.08;;;9.40;99.90;;;;;;4990585;28;20058;-78
2023/12/17 01:11:15;;;;;;;3.05;1.95;;;9.40;99.90;;;;;;5002427;28;20129;-77
2023/12/17 01:13:41;;;;;;;5.93;1.80;;;9.40;99.90;;;;;;4985823;28;20054;-78
2023/12/17 01:16:07;;;;;;;3.25;2.00;;;9.40;99.90;;;;;;5003185;28;20725;-78
2023/12/17 01:18:32;;;;;;;2.63;1.40;;;9.40;99.90;;;;;;5003882;28;20046;-78
2023/12/17 01:21:00;;;;;;;3.25;2.05;;;9.40;99.90;;;;;;5002655;28;20045;-77
2023/12/17 01:23:25;;;;;;;4.47;2.03;;;9.40;99.90;;;;;;4985909;28;20085;-77
2023/12/17 01:25:51;;;;;;;4.10;2.50;;;9.40;99.90;;;;;;4995248;28;20050;-78
2023/12/17 01:28:17;;;;;;;4.00;2.35;;;9.40;99.90;;;;;;4996081;28;20486;-77
2023/12/17 01:30:43;;;;;;;6.20;2.15;;;9.40;99.90;;;;;;4983510;28;20049;-77
2023/12/17 01:33:08;;;;;;;3.97;1.88;;;9.40;99.90;;;;;;4985307;28;20047;-78
2023/12/17 01:35:34;;;;;;;3.60;2.13;;;9.40;99.90;;;;;;4982118;28;20073;-77
2023/12/17 01:37:59;;;;;;;5.00;2.10;;;9.40;99.90;;;;;;4983251;28;20048;-78
2023/12/17 01:40:25;;;;;;;8.95;2.40;;;9.40;99.90;;;;;;4983599;28;20093;-78
2023/12/17 01:42:53;;;;;;;5.00;2.00;;;9.40;99.90;;;;;;4992055;28;20042;-78
2023/12/17 01:45:19;;;;;;;3.08;2.15;;;9.40;99.90;;;;;;5000557;28;20563;-77
2023/12/17 01:47:45;;;;;;;2.80;2.25;;;9.40;99.90;;;;;;5001808;28;20050;-77
2023/12/17 01:50:11;;;;;;;6.75;1.75;;;9.40;99.90;;;;;;4984833;28;20053;-77
2023/12/17 01:52:38;;;;;;;6.80;1.83;;;9.40;99.90;;;;;;4989371;28;20042;-77
2023/12/17 01:55:07;;;;;;;5.00;1.85;;;9.40;99.90;;;;;;4977070;28;20080;-77
2023/12/17 01:57:33;;;;;;;7.80;2.33;;;9.40;99.90;;;;;;4984507;28;20500;-77
2023/12/17 01:59:59;;;;;;;4.60;1.92;;;9.40;99.90;;;;;;4999279;28;20104;-77
2023/12/17 02:02:25;;;;;;;9.60;3.05;;;9.40;99.90;;;;;;4991341;28;20037;-77
2023/12/17 02:04:50;;;;;;;5.93;2.30;;;9.40;99.90;;;;;;4991176;28;20535;-78
2023/12/17 02:07:16;;;;;;;5.57;1.98;;;9.40;99.90;;;;;;4993937;28;20069;-77
2023/12/17 02:09:42;;;;;;;5.32;1.80;;;9.40;99.90;;;;;;4999885;28;20560;-77
2023/12/17 02:12:14;;;;;;;2.22;1.50;;;9.40;99.90;;;;;;4999832;28;20048;-77
2023/12/17 02:14:40;;;;;;;5.97;2.30;;;9.30;99.90;;;;;;5001055;28;20045;-78
2023/12/17 02:17:06;;;;;;;1.70;1.42;;;9.30;99.90;;;;;;5000667;28;20405;-77
2023/12/17 02:19:32;;;;;;;3.30;1.40;;;9.30;99.90;;;;;;5000897;28;20052;-78
2023/12/17 02:21:57;;;;;;;4.47;2.30;;;9.30;99.90;;;;;;4981889;28;20041;-78
2023/12/17 02:24:23;;;;;;;4.35;2.38;;;9.30;99.90;;;;;;4994812;28;20045;-78
2023/12/17 02:26:48;;;;;;;4.32;1.30;;;9.30;99.90;;;;;;4992900;28;20393;-77
2023/12/17 02:29:14;;;;;;;7.13;2.30;;;9.30;99.90;;;;;;4991982;28;20064;-78
2023/12/17 02:31:39;;;;;;;4.53;1.88;;;9.30;99.90;;;;;;5000606;28;20064;-78
2023/12/17 02:34:05;;;;;;;2.10;1.73;;;9.30;99.90;;;;;;4990852;28;20050;-78
2023/12/17 02:36:31;;;;;;;4.22;1.50;;;9.30;99.90;;;;;;5001712;28;20653;-78
2023/12/17 02:38:56;;;;;;;4.18;2.20;;;9.30;99.90;;;;;;4991365;28;20412;-77
2023/12/17 02:41:22;;;;;;;5.18;2.38;;;9.30;99.90;;;;;;4980363;28;20046;-78
2023/12/17 02:43:47;;;;;;;5.50;2.17;;;9.30;99.90;;;;;;4998128;28;20184;-77
2023/12/17 02:46:13;;;;;;;8.75;2.58;;;9.30;99.90;;;;;;4990619;28;20053;-78
2023/12/17 02:48:41;;;;;;;3.53;1.90;;;9.30;99.90;;;;;;4987142;28;20034;-77
2023/12/17 02:51:06;;;;;;;5.13;1.98;;;9.30;99.90;;;;;;5001475;28;20450;-77
2023/12/17 02:53:32;;;;;;;5.22;1.95;;;9.30;99.90;;;;;;4999795;28;20045;-77
2023/12/17 02:55:59;;;;;;;2.70;1.60;;;9.30;99.90;;;;;;4999296;28;20548;-77
2023/12/17 02:58:25;;;;;;;3.05;2.22;;;9.30;99.90;;;;;;4998942;28;20567;-77
2023/12/17 03:00:50;;;;;;;4.05;1.55;;;9.30;99.90;;;;;;4981198;28;20041;-78
2023/12/17 03:03:16;;;;;;;3.63;1.63;;;9.30;99.90;;;;;;4983219;28;20145;-77
2023/12/17 03:05:41;;;;;;;5.38;2.55;;;9.30;99.90;;;;;;5000153;28;20068;-77
2023/12/17 03:08:07;;;;;;;3.10;1.50;;;9.30;99.90;;;;;;4984506;28;20509;-77
2023/12/17 03:10:33;;;;;;;2.38;1.73;;;9.30;99.90;;;;;;5001655;28;20153;-78
2023/12/17 03:12:58;;;;;;;4.15;2.25;;;9.30;99.90;;;;;;4998790;28;20103;-77
2023/12/17 03:15:24;;;;;;;3.28;1.98;;;9.20;99.90;;;;;;4982214;28;20621;-77
2023/12/17 03:17:49;;;;;;;3.78;2.30;;;9.30;99.90;;;;;;4987275;28;20120;-77
2023/12/17 03:20:15;;;;;;;5.03;1.65;;;9.20;99.90;;;;;;4991111;28;20048;-78
2023/12/17 03:22:40;;;;;;;2.28;1.80;;;9.20;99.90;;;;;;5000765;28;20092;-78
2023/12/17 03:25:07;;;;;;;10.60;2.13;;;9.30;99.90;;;;;;5001013;28;20476;-77
2023/12/17 03:27:33;;;;;;;4.47;2.20;;;9.20;99.90;;;;;;4999218;28;20042;-77
2023/12/17 03:29:59;;;;;;;2.25;1.50;;;9.20;99.90;;;;;;4996530;28;20493;-78
2023/12/17 03:32:25;;;;;;;4.57;2.03;;;9.20;99.90;;;;;;4981975;28;20440;-77
2023/12/17 03:34:51;;;;;;;4.85;2.60;;;9.20;99.90;;;;;;4982577;28;20058;-78
2023/12/17 03:37:16;;;;;;;2.78;2.13;;;9.20;99.90;;;;;;4989421;28;20038;-77
2023/12/17 03:39:42;;;;;;;7.13;2.47;;;9.20;99.90;;;;;;4982435;28;20046;-77
2023/12/17 03:42:07;;;;;;;5.90;3.20;;;9.20;99.90;;;;;;4995518;28;20104;-77
2023/12/17 03:44:33;;;;;;;4.90;1.88;;;9.20;99.90;;;;;;4981738;28;20030;-77
2023/12/17 03:46:59;;;;;;;6.10;2.60;;;9.20;99.90;;;;;;4986473;28;20054;-77
2023/12/17 03:49:24;;;;;;;3.75;2.63;;;9.20;99.90;;;;;;4963922;28;20057;-78
2023/12/17 03:51:50;;;;;;;6.00;2.75;;;9.10;99.90;;;;;;4997026;28;20058;-78
2023/12/17 03:54:15;;;;;;;4.63;1.83;;;9.10;99.90;;;;;;5000145;28;20380;-78
2023/12/17 03:56:46;;;;;;;2.80;1.90;;;9.10;99.90;;;;;;4988718;28;20057;-78
2023/12/17 03:59:12;;;;;;;7.57;2.17;;;9.10;99.90;;;;;;4997380;28;20081;-77
2023/12/17 04:01:46;;;;;;;2.83;1.90;;;9.10;99.90;;;;;;4981385;28;20082;-78
2023/12/17 04:04:13;;;;;;;5.63;2.17;;;9.10;99.90;;;;;;4980310;28;20038;-78
2023/12/17 04:06:43;;;;;;;8.75;2.70;;;9.10;99.90;;;;;;4988337;28;20096;-78
2023/12/17 04:09:10;;;;;;;4.53;2.25;;;9.00;99.90;;;;;;4985170;28;20042;-77
2023/12/17 04:11:35;;;;;;;6.63;2.67;;;9.10;99.90;;;;;;4994827;28;20535;-78
2023/12/17 04:14:01;;;;;;;4.90;3.25;;;9.00;99.90;;;;;;4994715;28;20118;-78
2023/12/17 04:16:27;;;;;;;9.38;2.50;;;9.00;99.90;;;;;;4985861;28;20818;-78
2023/12/17 04:18:52;;;;;;;3.78;1.70;;;9.00;99.90;;;;;;4982752;28;20042;-78
2023/12/17 04:21:18;;;;;;;6.47;2.70;;;8.90;99.90;;;;;;4990626;28;20485;-78
2023/12/17 04:23:45;;;;;;;6.32;2.38;;;8.90;99.90;;;;;;4981597;28;20475;-77
2023/12/17 04:26:13;;;;;;;5.57;2.97;;;8.90;99.90;;;;;;4984269;28;21411;-77
2023/12/17 04:28:39;;;;;;;4.13;2.40;;;8.90;99.90;;;;;;4982924;28;20049;-77
2023/12/17 04:31:05;;;;;;;4.38;2.08;;;8.90;99.90;;;;;;4963820;28;20424;-78
2023/12/17 04:33:31;;;;;;;5.65;2.83;;;8.90;99.90;;;;;;4980016;28;20050;-77
2023/12/17 04:35:57;;;;;;;8.82;3.45;;;8.90;99.90;;;;;;4981208;28;20043;-78
2023/12/17 04:38:23;;;;;;;3.53;2.05;;;8.90;99.90;;;;;;5000736;28;20053;-77
2023/12/17 04:40:49;;;;;;;7.95;2.72;;;8.90;99.90;;;;;;5000208;28;20041;-78
2023/12/17 04:43:15;;;;;;;5.57;2.72;;;8.90;99.90;;;;;;4999166;28;20057;-77
2023/12/17 04:45:41;;;;;;;3.60;2.28;;;8.90;99.90;;;;;;4999830;28;20050;-77
2023/12/17 04:48:06;;;;;;;4.10;2.50;;;8.90;99.90;;;;;;4984059;28;20124;-77
2023/12/17 04:50:32;;;;;;;4.35;2.55;;;8.80;99.90;;;;;;4984967;28;20038;-77
2023/12/17 04:52:58;;;;;;;7.95;3.50;;;8.90;99.90;;;;;;4994103;28;20046;-78
2023/12/17 04:55:23;;;;;;;5.07;2.22;;;8.80;99.90;;;;;;4992318;28;20050;-78
2023/12/17 04:57:49;;;;;;;7.18;2.25;;;8.80;99.90;;;;;;5003595;28;20053;-78
2023/12/17 05:00:15;;;;;;;7.93;3.08;;;8.80;99.90;;;;;;4990229;28;20631;-77
2023/12/17 05:02:41;;;;;;;7.32;3.03;;;8.80;99.90;;;;;;5000528;28;20089;-77
2023/12/17 05:05:07;;;;;;;8.45;2.90;;;8.80;99.90;;;;;;5003362;28;20108;-77
2023/12/17 05:07:33;;;;;;;7.30;3.30;;;8.80;99.90;;;;;;4994869;28;20050;-77
2023/12/17 05:09:58;;;;;;;9.13;3.30;;;8.80;99.90;;;;;;4992063;28;20400;-77
2023/12/17 05:12:24;;;;;;;5.43;3.08;;;8.80;99.90;;;;;;5002580;28;20042;-77
2023/12/17 05:14:49;;;;;;;7.10;3.13;;;8.90;99.90;;;;;;5001947;28;20081;-77
2023/12/17 05:17:15;;;;;;;3.92;2.17;;;8.90;99.90;;;;;;4993061;28;20404;-77
2023/12/17 05:19:41;;;;;;;4.55;2.95;;;8.90;99.90;;;;;;4983984;28;20038;-77
2023/12/17 05:22:06;;;;;;;5.38;3.08;;;8.80;99.90;;;;;;4995715;28;20470;-77
2023/12/17 05:24:32;;;;;;;7.93;3.97;;;8.90;99.90;;;;;;5001333;28;20049;-77
2023/12/17 05:26:58;;;;;;;10.73;4.13;;;8.90;99.90;;;;;;4984282;28;20042;-77
2023/12/17 05:29:23;;;;;;;6.18;2.67;;;8.90;99.90;;;;;;4999311;28;20050;-77
2023/12/17 05:31:49;;;;;;;5.32;3.47;;;8.90;99.90;;;;;;4988966;28;20539;-77
2023/12/17 05:34:16;;;;;;;6.60;3.25;;;9.00;99.90;;;;;;5001940;28;20048;-77
2023/12/17 05:36:42;;;;;;;6.60;3.10;;;8.90;99.90;;;;;;5001679;28;20729;-77
2023/12/17 05:39:07;;;;;;;3.80;2.63;;;8.90;99.90;;;;;;4998942;28;20049;-78
2023/12/17 05:41:33;;;;;;;4.95;2.80;;;8.90;99.90;;;;;;4993026;28;20038;-76
2023/12/17 05:43:59;;;;;;;4.65;2.95;;;9.00;99.90;;;;;;4983359;28;20073;-77
2023/12/17 05:46:26;;;;;;;8.73;4.30;;;9.00;99.90;;;;;;4998015;28;20424;-77
2023/12/17 05:48:52;;;;;;;8.55;3.95;;;9.00;99.90;;;;;;4975745;28;20092;-77
2023/12/17 05:51:18;;;;;;;8.35;3.53;;;8.90;99.90;;;;;;4983878;28;20506;-77
2023/12/17 05:53:43;;;;;;;6.93;3.72;;;9.00;99.90;;;;;;4985782;28;20120;-78
2023/12/17 05:56:09;;;;;;;10.88;4.70;;;8.90;99.90;;;;;;4991738;28;20042;-78
2023/12/17 05:58:35;;;;;;;8.13;4.30;;;9.00;99.90;;;;;;4993986;28;20541;-78
2023/12/17 06:01:00;;;;;;;7.90;3.28;;;9.00;99.90;;;;;;5001048;28;20045;-77
2023/12/17 06:03:26;;;;;;;9.95;4.45;;;9.00;99.90;;;;;;4988758;28;20050;-77
2023/12/17 06:05:51;;;;;;;14.25;4.22;;;9.00;99.90;;;;;;4984650;28;20528;-77
2023/12/17 06:08:17;;;;;;;7.38;3.15;;;9.00;99.90;;;;;;4996123;28;20053;-77
2023/12/17 06:10:43;;;;;;;8.77;4.93;;;9.00;99.90;;;;;;4988678;28;20046;-77
2023/12/17 06:13:08;;;;;;;7.75;3.38;;;9.00;99.90;;;;;;4999445;28;20034;-77
2023/12/17 06:15:34;;;;;;;7.35;4.50;;;9.00;99.90;;;;;;4992683;28;20050;-77
2023/12/17 06:17:59;;;;;;;6.43;3.83;;;9.00;99.90;;;;;;4987880;28;20069;-77
2023/12/17 06:20:25;;;;;;;9.98;4.03;;;9.00;99.90;;;;;;4999155;28;20049;-77
2023/12/17 06:22:52;;;;;;;9.45;4.43;;;9.00;99.90;;;;;;4983757;28;20053;-78
2023/12/17 06:25:17;;;;;;;9.43;3.90;;;9.00;99.90;;;;;;4986493;28;20050;-77
2023/12/17 06:27:43;;;;;;;6.80;3.35;;;9.10;99.90;;;;;;4991801;28;20112;-77
2023/12/17 06:30:09;;;;;;;8.82;4.78;;;9.00;99.90;;;;;;4999079;28;20061;-77
2023/12/17 06:32:35;;;;;;;8.45;4.15;;;9.00;99.90;;;;;;4993954;28;20046;-77
2023/12/17 06:35:00;;;;;;;7.43;4.18;;;9.00;99.90;;;;;;4991862;28;20042;-77
2023/12/17 06:37:26;;;;;;;7.32;3.53;;;9.10;99.90;;;;;;4997302;28;20096;-78
2023/12/17 06:39:51;;;;;;;9.95;3.50;;;9.00;99.90;;;;;;4967875;28;20053;-78
2023/12/17 06:42:17;;;;;;;10.45;4.35;;;9.10;99.90;;;;;;4997004;28;20030;-77
2023/12/17 06:44:42;;;;;;;10.57;3.67;;;9.00;99.90;;;;;;4981285;28;20038;-77
2023/12/17 06:47:08;;;;;;;9.95;3.88;;;9.00;99.90;;;;;;4987277;28;20137;-77
2023/12/17 06:49:36;;;;;;;10.25;3.63;;;9.00;99.90;;;;;;4986244;28;20050;-77
2023/12/17 06:52:02;;;;;;;10.75;3.47;;;9.00;99.90;;;;;;4982461;28;20038;-77
2023/12/17 06:54:27;;;;;;;6.68;3.47;;;9.10;99.90;;;;;;4997518;28;20536;-78
2023/12/17 06:56:53;;;;;;;8.35;3.60;;;9.00;99.90;;;;;;4997166;28;20061;-77
2023/12/17 06:59:18;;;;;;;4.90;2.92;;;9.00;99.90;;;;;;4992533;28;20096;-77
2023/12/17 07:01:44;;;;;;;6.95;3.25;;;9.00;99.90;;;;;;4981619;28;20042;-78
2023/12/17 07:04:10;;;;;;;9.13;3.45;;;9.10;99.90;;;;;;4982089;28;20082;-78
2023/12/17 07:06:36;;;;;;;6.22;4.28;;;9.00;99.90;;;;;;4998235;28;20081;-78
2023/12/17 07:09:02;;;;;;;9.52;3.72;;;9.10;99.90;;;;;;4986741;28;20093;-78
2023/12/17 07:11:27;;;;;;;5.95;3.35;;;9.10;99.90;;;;;;4987647;28;20046;-78
2023/12/17 07:13:53;;;;;;;8.18;3.08;;;9.10;99.90;;;;;;4990955;28;20048;-77
2023/12/17 07:16:28;;;;;;;4.75;2.67;;;9.10;99.90;;;;;;5000269;28;20081;-78
2023/12/17 07:18:53;;;;;;;7.55;3.35;;;9.10;99.90;;;;;;4987168;28;20705;-78
2023/12/17 07:21:19;;;;;;;6.03;2.80;;;9.00;99.90;;;;;;4982541;28;20050;-78
2023/12/17 07:23:45;;;;;;;8.73;3.05;;;9.10;99.90;;;;;;4996426;28;20045;-78
2023/12/17 07:26:11;;;;;;;5.05;2.78;;;9.10;99.90;;;;;;4984945;28;20049;-78
2023/12/17 07:28:37;;;;;;;5.72;3.40;;;9.10;99.90;;;;;;4980888;28;20049;-77
2023/12/17 07:31:03;;;;;;;9.65;3.45;;;9.00;99.90;;;;;;4990955;28;20077;-78
2023/12/17 07:33:29;;;;;;;6.40;3.55;;;9.00;99.90;;;;;;4995950;28;20049;-78
2023/12/17 07:35:54;;;;;;;8.23;3.05;;;9.00;99.90;;;;;;4984678;28;20133;-78
2023/12/17 07:38:20;;;;;;;9.63;3.85;;;9.10;99.90;;;;;;5000647;28;20073;-78
2023/12/17 07:40:46;;;;;;;7.20;2.88;;;9.00;99.90;;;;;;4992777;28;20515;-78
2023/12/17 07:43:11;;;;;;;22.00;4.22;;;9.00;99.90;;;;;;4980017;28;20050;-78
2023/12/17 07:45:37;;;;;;;17.83;5.00;;;9.00;99.90;;;;;;4982178;28;20133;-78
2023/12/17 07:48:03;;;;;;;11.35;4.78;;;9.00;99.90;;;;;;4990781;28;20050;-78
2023/12/17 07:50:29;;;;;;;6.85;4.25;;;9.00;99.90;;;;;;4975602;28;20081;-77
2023/12/17 07:52:55;;;;;;;9.27;4.95;;;9.00;99.90;;;;;;4997063;28;20089;-78
2023/12/17 07:55:20;;;;;;;10.18;4.68;;;9.00;99.90;;;;;;4990620;28;20044;-78
2023/12/17 07:57:46;;;;;;;15.98;6.45;;;9.00;99.90;;;;;;4996397;28;20046;-78
2023/12/17 08:00:12;;;;;;;13.27;5.97;;;9.00;99.90;;;;;;4981319;28;20413;-78
2023/12/17 08:02:38;;;;;;;24.65;7.50;;;9.00;99.90;;;;;;5000689;28;20129;-78
2023/12/17 08:05:05;;;;;;;13.57;6.10;;;9.00;99.90;;;;;;4999526;28;20727;-78
2023/12/17 08:07:32;;;;;;;21.95;9.10;;;9.00;99.90;;;;;;4986994;28;20572;-78
2023/12/17 08:09:58;;;;;;;19.83;9.50;;;9.00;99.90;;;;;;4972949;28;20141;-78
2023/12/17 08:12:23;;;;;;;18.88;7.75;;;8.90;99.90;;;;;;4976192;28;20569;-79
2023/12/17 08:14:49;;;;;;;18.33;7.95;;;9.00;99.90;;;;;;4968987;28;20497;-79
2023/12/17 08:17:15;;;;;;;11.63;6.72;;;9.00;99.90;;;;;;4975327;28;20089;-79
2023/12/17 08:19:42;;;;;;;22.23;7.07;;;8.90;99.90;;;;;;4975155;28;20149;-79
2023/12/17 08:22:11;;;;;;;15.98;7.78;;;8.90;99.90;;;;;;4981997;28;20038;-79
2023/12/17 08:24:36;;;;;;;15.50;7.72;;;8.90;99.90;;;;;;4979541;28;20050;-79
2023/12/17 08:27:02;;;;;;;18.63;8.35;;;8.90;99.90;;;;;;4971330;28;20501;-79
2023/12/17 08:29:28;;;;;;;14.25;7.95;;;8.90;99.90;;;;;;4979272;28;20043;-79
2023/12/17 08:31:55;;;;;;;13.13;6.22;;;8.90;99.90;;;;;;4975886;28;20046;-79
2023/12/17 08:34:21;;;;;;;12.45;7.43;;;8.90;99.90;;;;;;4980717;28;20651;-79
2023/12/17 08:36:47;;;;;;;11.13;6.53;;;8.90;99.90;;;;;;4991504;28;20038;-79
2023/12/17 08:39:13;;;;;;;15.13;5.97;;;8.90;99.90;;;;;;4999087;28;20187;-79
2023/12/17 08:41:39;;;;;;;13.18;5.65;;;8.90;99.90;;;;;;4997055;28;20445;-81
2023/12/17 08:44:05;;;;;;;9.82;7.32;;;8.90;99.90;;;;;;4966243;28;20217;-82
2023/12/17 08:46:30;;;;;;;11.73;7.18;;;8.90;99.90;;;;;;4978337;28;20503;-80
2023/12/17 08:48:56;;;;;;;17.60;6.70;;;8.90;99.90;;;;;;4973410;28;20061;-81
2023/12/17 08:51:21;;;;;;;11.93;6.50;;;8.90;99.90;;;;;;4985724;28;20062;-81
2023/12/17 08:53:47;;;;;;;11.80;6.47;;;8.90;99.90;;;;;;5003655;28;20499;-81
2023/12/17 08:56:13;;;;;;;13.13;6.28;;;8.90;99.90;;;;;;4996362;28;20050;-80
2023/12/17 08:58:39;;;;;;;8.98;5.38;;;8.90;99.90;;;;;;4986709;28;20212;-81
2023/12/17 09:01:04;;;;;;;12.52;4.65;;;8.90;99.90;;;;;;5002055;28;20050;-81
2023/12/17 09:03:30;;;;;;;11.02;4.60;;;8.90;99.90;;;;;;4994947;28;20046;-81
2023/12/17 09:05:56;;;;;;;14.38;4.75;;;9.00;99.90;;;;;;4998456;28;20046;-81
2023/12/17 09:08:21;;;;;;;17.85;5.43;;;9.00;99.90;;;;;;4972777;28;20497;-81
2023/12/17 09:10:47;;;;;;;12.48;5.35;;;9.00;99.90;;;;;;4989133;28;20042;-81
2023/12/17 09:13:12;;;;;;;11.63;4.95;;;9.00;99.90;;;;;;4974581;28;20054;-81
2023/12/17 09:15:39;;;;;;;11.50;4.57;;;9.00;99.90;;;;;;4966557;28;20050;-81
2023/12/17 09:18:08;;;;;;;10.98;6.30;;;9.10;99.90;;;;;;4976646;28;20047;-81
2023/12/17 09:20:33;;;;;;;11.35;5.03;;;9.10;99.90;;;;;;4976699;28;20042;-81
2023/12/17 09:22:59;;;;;;;7.75;4.57;;;9.10;99.90;;;;;;4972247;28;20485;-81
2023/12/17 09:25:24;;;;;;;14.73;4.28;;;9.10;99.90;;;;;;4966068;28;20089;-82
2023/12/17 09:27:53;;;;;;;9.65;3.83;;;9.10;99.90;;;;;;5000461;28;20041;-82
2023/12/17 09:30:18;;;;;;;7.63;4.18;;;9.10;99.90;;;;;;4999633;28;20064;-81
2023/12/17 09:32:44;;;;;;;14.82;4.50;;;9.10;99.90;;;;;;4988220;28;20046;-81
2023/12/17 09:35:11;;;;;;;8.93;4.63;;;9.10;99.90;;;;;;4977838;28;20051;-81
2023/12/17 09:37:39;;;;;;;11.40;4.70;;;9.20;99.90;;;;;;4971852;28;20044;-81
2023/12/17 09:40:07;;;;;;;17.63;6.20;;;9.10;99.90;;;;;;4987067;28;20536;-82
2023/12/17 09:42:32;;;;;;;14.93;5.68;;;9.10;99.90;;;;;;4984571;28;20104;-81
2023/12/17 09:44:59;;;;;;;12.20;4.68;;;9.20;99.90;;;;;;5001072;28;20034;-81
2023/12/17 09:47:25;;;;;;;12.55;5.15;;;9.20;99.90;;;;;;4991486;28;20057;-81
2023/12/17 09:49:50;;;;;;;8.82;4.60;;;9.20;99.90;;;;;;4999308;28;20056;-82
2023/12/17 09:52:18;;;;;;;20.50;5.18;;;9.20;99.90;;;;;;4991503;28;20478;-81
2023/12/17 09:54:48;;;;;;;7.82;4.80;;;9.20;99.90;;;;;;4995667;28;20641;-82
2023/12/17 09:57:16;;;;;;;10.88;4.32;;;9.20;99.90;;;;;;4983481;28;20046;-81
2023/12/17 09:59:42;;;;;;;10.73;4.90;;;9.20;99.90;;;;;;4973283;28;21445;-81
2023/12/17 10:02:14;;;;;;;11.57;4.65;;;9.20;99.90;;;;;;4967462;28;20041;-76
2023/12/17 10:04:39;;;;;;;8.18;3.95;;;9.20;99.90;;;;;;4969787;28;20242;-76
2023/12/17 10:07:06;;;;;;;10.65;4.57;;;9.20;99.90;;;;;;4978081;28;20077;-78
2023/12/17 10:09:35;;;;;;;10.32;4.35;;;9.20;99.90;;;;;;4987836;28;20504;-76
2023/12/17 10:12:01;;;;;;;14.68;3.63;;;9.20;99.90;;;;;;4980637;28;20054;-77
2023/12/17 10:14:30;;;;;;;14.20;5.85;;;9.20;99.90;;;;;;4978995;28;20057;-78
2023/12/17 10:16:56;;;;;;;7.50;4.10;;;9.20;99.90;;;;;;4979843;28;20038;-78
2023/12/17 10:19:22;;;;;;;11.63;3.92;;;9.20;99.90;;;;;;4987934;28;20042;-77
2023/12/17 10:21:47;;;;;;;8.95;4.40;;;9.20;99.90;;;;;;4983064;28;20050;-77
2023/12/17 10:24:13;;;;;;;12.77;5.07;;;9.20;99.90;;;;;;4994825;28;20037;-76
2023/12/17 10:26:46;;;;;;;10.55;5.18;;;9.20;99.90;;;;;;4968935;28;20058;-74
2023/12/17 10:29:20;;;;;;;10.32;5.28;;;9.30;99.90;;;;;;4985950;28;20038;-75
2023/12/17 10:31:46;;;;;;;9.25;5.45;;;9.30;99.90;;;;;;4984687;28;20042;-75
2023/12/17 10:34:19;;;;;;;13.63;6.03;;;9.20;99.90;;;;;;4990366;28;20057;-74
2023/12/17 10:36:47;;;;;;;11.40;5.43;;;9.30;99.90;;;;;;4989679;28;20038;-76
2023/12/17 10:39:14;;;;;;;11.82;6.20;;;9.20;99.90;;;;;;4992088;28;20472;-74
2023/12/17 10:41:41;;;;;;;16.38;7.28;;;9.20;99.90;;;;;;4989924;28;20050;-75
2023/12/17 10:44:11;;;;;;;10.63;5.97;;;9.30;99.90;;;;;;4984261;28;20042;-74
2023/12/17 10:46:43;;;;;;;11.45;5.32;;;9.20;99.90;;;;;;4982148;28;20057;-72
2023/12/17 10:49:12;;;;;;;13.50;6.20;;;9.30;99.90;;;;;;4980051;28;20050;-76
2023/12/17 10:51:40;;;;;;;19.30;6.93;;;9.30;99.90;;;;;;4980999;28;20046;-76
2023/12/17 10:54:07;;;;;;;10.32;5.85;;;9.30;99.90;;;;;;4980644;28;20042;-76
2023/12/17 10:56:41;;;;;;;11.65;5.40;;;9.30;99.90;;;;;;4975343;28;20030;-76
2023/12/17 10:59:14;;;;;;;19.63;5.65;;;9.30;99.90;;;;;;4979956;28;20042;-77
2023/12/17 11:01:42;;;;;;;10.85;5.85;;;9.30;99.90;;;;;;4982342;28;20060;-76
2023/12/17 11:04:08;;;;;;;12.82;5.32;;;9.30;99.90;;;;;;4964686;28;20060;-76
2023/12/17 11:06:34;;;;;;;9.80;4.90;;;9.30;99.90;;;;;;4981094;28;20050;-77
2023/12/17 11:08:59;;;;;;;9.10;5.00;;;9.30;99.90;;;;;;4982527;28;20069;-76
2023/12/17 11:11:26;;;;;;;10.02;5.18;;;9.30;99.90;;;;;;4980994;28;20249;-76
2023/12/17 11:13:53;;;;;;;7.07;3.90;;;9.30;99.90;;;;;;4980235;28;20049;-76
2023/12/17 11:16:28;;;;;;;12.18;5.15;;;9.30;99.90;;;;;;4990414;28;20624;-74
2023/12/17 11:18:58;;;;;;;17.33;6.57;;;9.30;99.90;;;;;;4982715;28;20049;-75
2023/12/17 11:21:24;;;;;;;15.25;5.07;;;9.30;99.90;;;;;;4980275;28;20070;-75
2023/12/17 11:23:51;;;;;;;16.75;5.80;;;9.40;99.90;;;;;;4983434;28;20084;-75
2023/12/17 11:26:18;;;;;;;8.18;4.85;;;9.40;99.90;;;;;;4978640;28;20085;-76
2023/12/17 11:28:44;;;;;;;7.38;4.45;;;9.30;99.90;;;;;;4987965;28;20064;-76
2023/12/17 11:31:12;;;;;;;12.50;5.00;;;9.40;99.90;;;;;;4979506;28;20046;-76
2023/12/17 11:33:38;;;;;;;10.73;4.53;;;9.30;99.90;;;;;;4973942;28;20094;-74
2023/12/17 11:36:08;;;;;;;12.27;4.85;;;9.40;99.90;;;;;;4979568;28;20045;-74
2023/12/17 11:38:37;;;;;;;9.23;4.97;;;9.40;99.90;;;;;;4962023;28;20053;-73
2023/12/17 11:41:06;;;;;;;17.98;5.97;;;9.40;99.90;;;;;;4978371;28;20042;-74
2023/12/17 11:43:32;;;;;;;10.43;4.22;;;9.40;99.90;;;;;;4978248;28;20279;-74
2023/12/17 11:45:58;;;;;;;11.68;5.35;;;9.40;99.90;;;;;;4979256;28;20513;-74
2023/12/17 11:48:24;;;;;;;10.20;5.13;;;9.40;99.90;;;;;;4979357;28;20099;-73
2023/12/17 11:50:56;;;;;;;11.75;5.10;;;9.50;99.90;;;;;;4982851;28;20030;-74
2023/12/17 11:53:23;;;;;;;12.20;5.97;;;9.40;99.90;;;;;;4978054;28;20050;-73
2023/12/17 11:55:55;;;;;;;13.15;5.07;;;9.40;99.90;;;;;;4984389;28;20039;-72
2023/12/17 11:58:22;;;;;;;8.05;5.43;;;9.40;99.90;;;;;;4968685;28;20037;-76
2023/12/17 12:01:03;;;;;;;12.13;5.95;;;9.40;99.90;;;;;;4983668;28;20082;-75
2023/12/17 12:03:30;;;;;;;13.02;4.68;;;9.40;99.90;;;;;;4982046;28;20539;-73
2023/12/17 12:05:59;;;;;;;9.52;4.50;;;9.40;99.90;;;;;;4980915;28;20076;-73
2023/12/17 12:08:26;;;;;;;13.15;5.97;;;9.40;99.90;;;;;;4995525;28;20120;-75
2023/12/17 12:10:52;;;;;;;12.85;4.75;;;9.40;99.90;;;;;;4993987;28;20099;-76
2023/12/17 12:13:18;;;;;;;13.00;5.78;;;9.40;99.90;;;;;;4967164;28;20436;-75
2023/12/17 12:15:44;;;;;;;15.57;4.90;;;9.50;99.90;;;;;;4982871;28;20489;-75
2023/12/17 12:18:22;;;;;;;9.70;4.78;;;9.40;99.90;;;;;;4980496;28;20058;-75
2023/12/17 12:20:48;;;;;;;10.63;5.80;;;9.50;99.90;;;;;;4972968;28;20129;-75
2023/12/17 12:23:14;;;;;;;11.63;5.90;;;9.50;99.90;;;;;;4975070;28;20508;-75
2023/12/17 12:25:40;;;;;;;8.05;5.00;;;9.50;99.90;;;;;;4967520;28;20105;-75
2023/12/17 12:28:14;;;;;;;17.98;5.63;;;9.50;99.90;;;;;;4974778;28;20042;-75
2023/12/17 12:30:40;;;;;;;10.07;5.13;;;9.50;99.90;;;;;;4974619;28;20528;-75
2023/12/17 12:33:10;;;;;;;10.45;4.90;;;9.50;99.90;;;;;;4955108;28;20042;-75
2023/12/17 12:35:37;;;;;;;8.27;5.10;;;9.50;99.90;;;;;;4970957;28;20043;-75
2023/12/17 12:38:19;;;;;;;11.70;5.40;;;9.50;99.90;;;;;;4966129;28;20421;-75
2023/12/17 12:40:45;;;;;;;10.60;4.85;;;9.50;99.90;;;;;;4982942;28;20479;-75
2023/12/17 12:43:11;;;;;;;12.73;5.70;;;9.40;99.90;;;;;;4979544;28;20042;-75
2023/12/17 12:45:37;;;;;;;9.13;4.97;;;9.50;99.90;;;;;;4981078;28;20038;-75
2023/12/17 12:48:03;;;;;;;10.98;4.57;;;9.40;99.90;;;;;;4969796;28;20038;-75